sensor_id;sensor_type;location;lat;lon;timestamp;P1;durP1;ratioP1;P2;durP2;ratioP2
81056;SDS011;70563;50.084;14.468;2023-06-26T00:01:30;9.23;;;7.57;;
81056;SDS011;70563;50.084;14.468;2023-06-26T00:03:58;10.52;;;7.22;;
81056;SDS011;70563;50.084;14.468;2023-06-26T00:06:25;9.70;;;7.22;;
81056;SDS011;70563;50.084;14.468;2023-06-26T00:08:51;9.55;;;8.00;;
81056;SDS011;70563;50.084;14.468;2023-06-26T00:11:18;8.95;;;7.25;;
81056;SDS011;70563;50.084;14.468;2023-06-26T00:13:44;9.52;;;6.90;;
81056;SDS011;70563;50.084;14.468;2023-06-26T00:16:09;11.95;;;7.57;;
81056;SDS011;70563;50.084;14.468;2023-06-26T00:18:35;7.90;;;6.53;;
81056;SDS011;70563;50.084;14.468;2023-06-26T00:21:00;9.85;;;7.40;;
81056;SDS011;70563;50.084;14.468;2023-06-26T00:23:25;9.68;;;6.78;;
81056;SDS011;70563;50.084;14.468;2023-06-26T00:25:52;11.35;;;6.63;;
81056;SDS011;70563;50.084;14.468;2023-06-26T00:28:18;8.48;;;7.00;;
81056;SDS011;70563;50.084;14.468;2023-06-26T00:30:43;10.57;;;7.10;;
81056;SDS011;70563;50.084;14.468;2023-06-26T00:33:08;11.27;;;7.03;;
81056;SDS011;70563;50.084;14.468;2023-06-26T00:35:34;9.25;;;6.85;;
81056;SDS011;70563;50.084;14.468;2023-06-26T00:38:00;10.15;;;7.30;;
81056;SDS011;70563;50.084;14.468;2023-06-26T00:40:26;9.43;;;6.53;;
81056;SDS011;70563;50.084;14.468;2023-06-26T00:42:52;9.40;;;6.55;;
81056;SDS011;70563;50.084;14.468;2023-06-26T00:45:18;8.52;;;6.55;;
81056;SDS011;70563;50.084;14.468;2023-06-26T00:47:43;11.27;;;7.65;;
81056;SDS011;70563;50.084;14.468;2023-06-26T00:50:08;9.98;;;7.00;;
81056;SDS011;70563;50.084;14.468;2023-06-26T00:52:34;11.82;;;7.32;;
81056;SDS011;70563;50.084;14.468;2023-06-26T00:55:00;9.13;;;7.50;;
81056;SDS011;70563;50.084;14.468;2023-06-26T00:57:26;8.85;;;7.63;;
81056;SDS011;70563;50.084;14.468;2023-06-26T00:59:52;7.78;;;6.93;;
81056;SDS011;70563;50.084;14.468;2023-06-26T01:02:17;11.07;;;6.88;;
81056;SDS011;70563;50.084;14.468;2023-06-26T01:04:46;13.23;;;8.07;;
81056;SDS011;70563;50.084;14.468;2023-06-26T01:07:16;10.70;;;7.10;;
81056;SDS011;70563;50.084;14.468;2023-06-26T01:09:43;9.32;;;6.90;;
81056;SDS011;70563;50.084;14.468;2023-06-26T01:12:11;8.05;;;7.10;;
81056;SDS011;70563;50.084;14.468;2023-06-26T01:14:36;9.55;;;6.07;;
81056;SDS011;70563;50.084;14.468;2023-06-26T01:17:02;8.27;;;6.75;;
81056;SDS011;70563;50.084;14.468;2023-06-26T01:19:29;9.05;;;6.57;;
81056;SDS011;70563;50.084;14.468;2023-06-26T01:22:02;11.77;;;6.45;;
81056;SDS011;70563;50.084;14.468;2023-06-26T01:24:39;10.13;;;7.07;;
81056;SDS011;70563;50.084;14.468;2023-06-26T01:27:10;9.88;;;6.68;;
81056;SDS011;70563;50.084;14.468;2023-06-26T01:29:37;10.35;;;6.60;;
81056;SDS011;70563;50.084;14.468;2023-06-26T01:32:04;9.90;;;7.18;;
81056;SDS011;70563;50.084;14.468;2023-06-26T01:34:30;9.80;;;7.03;;
81056;SDS011;70563;50.084;14.468;2023-06-26T01:36:55;10.75;;;6.53;;
81056;SDS011;70563;50.084;14.468;2023-06-26T01:39:21;9.43;;;6.88;;
81056;SDS011;70563;50.084;14.468;2023-06-26T01:41:46;9.30;;;6.88;;
81056;SDS011;70563;50.084;14.468;2023-06-26T01:44:30;9.45;;;6.55;;
81056;SDS011;70563;50.084;14.468;2023-06-26T01:47:01;9.82;;;7.00;;
81056;SDS011;70563;50.084;14.468;2023-06-26T01:49:31;9.68;;;7.25;;
81056;SDS011;70563;50.084;14.468;2023-06-26T01:52:19;11.75;;;8.02;;
81056;SDS011;70563;50.084;14.468;2023-06-26T01:57:45;9.95;;;6.97;;
81056;SDS011;70563;50.084;14.468;2023-06-26T02:00:13;11.45;;;8.13;;
81056;SDS011;70563;50.084;14.468;2023-06-26T02:05:08;8.30;;;7.32;;
81056;SDS011;70563;50.084;14.468;2023-06-26T02:07:33;9.43;;;6.88;;
81056;SDS011;70563;50.084;14.468;2023-06-26T02:09:59;11.68;;;7.22;;
81056;SDS011;70563;50.084;14.468;2023-06-26T02:12:24;9.82;;;6.93;;
81056;SDS011;70563;50.084;14.468;2023-06-26T02:14:50;10.25;;;7.53;;
81056;SDS011;70563;50.084;14.468;2023-06-26T02:17:16;11.65;;;7.72;;
81056;SDS011;70563;50.084;14.468;2023-06-26T02:19:41;9.55;;;6.90;;
81056;SDS011;70563;50.084;14.468;2023-06-26T02:22:12;9.38;;;6.50;;
81056;SDS011;70563;50.084;14.468;2023-06-26T02:24:41;7.95;;;5.82;;
81056;SDS011;70563;50.084;14.468;2023-06-26T02:27:07;8.88;;;6.55;;
81056;SDS011;70563;50.084;14.468;2023-06-26T02:29:33;8.63;;;6.13;;
81056;SDS011;70563;50.084;14.468;2023-06-26T02:31:58;9.52;;;6.15;;
81056;SDS011;70563;50.084;14.468;2023-06-26T02:34:24;7.47;;;5.80;;
81056;SDS011;70563;50.084;14.468;2023-06-26T02:36:49;10.45;;;6.63;;
81056;SDS011;70563;50.084;14.468;2023-06-26T02:39:14;9.25;;;6.45;;
81056;SDS011;70563;50.084;14.468;2023-06-26T02:41:40;11.68;;;6.95;;
81056;SDS011;70563;50.084;14.468;2023-06-26T02:44:05;9.60;;;6.65;;
81056;SDS011;70563;50.084;14.468;2023-06-26T02:46:31;9.98;;;6.90;;
81056;SDS011;70563;50.084;14.468;2023-06-26T02:48:58;9.60;;;6.93;;
81056;SDS011;70563;50.084;14.468;2023-06-26T02:51:23;12.82;;;6.65;;
81056;SDS011;70563;50.084;14.468;2023-06-26T02:53:49;11.15;;;7.53;;
81056;SDS011;70563;50.084;14.468;2023-06-26T02:56:14;9.23;;;7.03;;
81056;SDS011;70563;50.084;14.468;2023-06-26T02:58:39;10.80;;;6.63;;
81056;SDS011;70563;50.084;14.468;2023-06-26T03:01:05;9.60;;;6.40;;
81056;SDS011;70563;50.084;14.468;2023-06-26T03:03:30;10.75;;;6.60;;
81056;SDS011;70563;50.084;14.468;2023-06-26T03:05:55;8.73;;;6.50;;
81056;SDS011;70563;50.084;14.468;2023-06-26T03:08:21;8.98;;;6.40;;
81056;SDS011;70563;50.084;14.468;2023-06-26T03:10:47;8.35;;;6.80;;
81056;SDS011;70563;50.084;14.468;2023-06-26T03:13:12;9.32;;;6.00;;
81056;SDS011;70563;50.084;14.468;2023-06-26T03:15:38;8.35;;;6.15;;
81056;SDS011;70563;50.084;14.468;2023-06-26T03:18:03;9.00;;;5.57;;
81056;SDS011;70563;50.084;14.468;2023-06-26T03:20:28;8.63;;;6.63;;
81056;SDS011;70563;50.084;14.468;2023-06-26T03:22:54;7.20;;;5.65;;
81056;SDS011;70563;50.084;14.468;2023-06-26T03:25:19;7.82;;;5.57;;
81056;SDS011;70563;50.084;14.468;2023-06-26T03:27:44;8.63;;;6.35;;
81056;SDS011;70563;50.084;14.468;2023-06-26T03:30:10;8.82;;;6.15;;
81056;SDS011;70563;50.084;14.468;2023-06-26T03:32:36;10.50;;;6.97;;
81056;SDS011;70563;50.084;14.468;2023-06-26T03:35:01;6.60;;;5.22;;
81056;SDS011;70563;50.084;14.468;2023-06-26T03:37:28;7.15;;;5.30;;
81056;SDS011;70563;50.084;14.468;2023-06-26T03:39:53;9.70;;;6.35;;
81056;SDS011;70563;50.084;14.468;2023-06-26T03:42:19;8.02;;;6.13;;
81056;SDS011;70563;50.084;14.468;2023-06-26T03:44:44;7.78;;;5.70;;
81056;SDS011;70563;50.084;14.468;2023-06-26T03:47:09;8.88;;;6.20;;
81056;SDS011;70563;50.084;14.468;2023-06-26T03:49:35;9.57;;;6.35;;
81056;SDS011;70563;50.084;14.468;2023-06-26T03:52:00;10.48;;;6.22;;
81056;SDS011;70563;50.084;14.468;2023-06-26T03:54:25;7.32;;;5.82;;
81056;SDS011;70563;50.084;14.468;2023-06-26T03:56:51;8.57;;;5.80;;
81056;SDS011;70563;50.084;14.468;2023-06-26T03:59:16;10.07;;;6.03;;
81056;SDS011;70563;50.084;14.468;2023-06-26T04:01:42;9.30;;;5.97;;
81056;SDS011;70563;50.084;14.468;2023-06-26T04:04:07;12.85;;;6.00;;
81056;SDS011;70563;50.084;14.468;2023-06-26T04:06:33;7.85;;;6.30;;
81056;SDS011;70563;50.084;14.468;2023-06-26T04:08:58;9.93;;;6.22;;
81056;SDS011;70563;50.084;14.468;2023-06-26T04:11:24;10.23;;;6.18;;
81056;SDS011;70563;50.084;14.468;2023-06-26T04:13:50;8.27;;;6.13;;
81056;SDS011;70563;50.084;14.468;2023-06-26T04:16:15;11.43;;;5.82;;
81056;SDS011;70563;50.084;14.468;2023-06-26T04:18:41;7.45;;;5.75;;
81056;SDS011;70563;50.084;14.468;2023-06-26T04:21:10;9.18;;;5.88;;
81056;SDS011;70563;50.084;14.468;2023-06-26T04:23:37;7.95;;;6.13;;
81056;SDS011;70563;50.084;14.468;2023-06-26T04:26:07;8.38;;;6.00;;
81056;SDS011;70563;50.084;14.468;2023-06-26T04:28:33;11.80;;;7.03;;
81056;SDS011;70563;50.084;14.468;2023-06-26T04:30:59;8.07;;;5.60;;
81056;SDS011;70563;50.084;14.468;2023-06-26T04:33:25;7.80;;;5.53;;
81056;SDS011;70563;50.084;14.468;2023-06-26T04:35:51;6.15;;;5.32;;
81056;SDS011;70563;50.084;14.468;2023-06-26T04:38:18;8.75;;;5.38;;
81056;SDS011;70563;50.084;14.468;2023-06-26T04:40:44;8.45;;;5.93;;
81056;SDS011;70563;50.084;14.468;2023-06-26T04:43:09;7.13;;;5.28;;
81056;SDS011;70563;50.084;14.468;2023-06-26T04:45:35;9.15;;;5.13;;
81056;SDS011;70563;50.084;14.468;2023-06-26T04:48:00;7.45;;;5.40;;
81056;SDS011;70563;50.084;14.468;2023-06-26T04:50:26;7.72;;;5.60;;
81056;SDS011;70563;50.084;14.468;2023-06-26T04:52:53;10.80;;;5.55;;
81056;SDS011;70563;50.084;14.468;2023-06-26T04:55:23;8.15;;;5.28;;
81056;SDS011;70563;50.084;14.468;2023-06-26T04:57:49;13.50;;;5.85;;
81056;SDS011;70563;50.084;14.468;2023-06-26T05:00:15;8.27;;;5.07;;
81056;SDS011;70563;50.084;14.468;2023-06-26T05:02:41;10.43;;;5.78;;
81056;SDS011;70563;50.084;14.468;2023-06-26T05:05:06;8.10;;;5.55;;
81056;SDS011;70563;50.084;14.468;2023-06-26T05:07:32;7.60;;;5.53;;
81056;SDS011;70563;50.084;14.468;2023-06-26T05:09:58;14.32;;;5.47;;
81056;SDS011;70563;50.084;14.468;2023-06-26T05:12:23;10.15;;;5.07;;
81056;SDS011;70563;50.084;14.468;2023-06-26T05:14:48;6.93;;;5.50;;
81056;SDS011;70563;50.084;14.468;2023-06-26T05:17:14;12.27;;;5.57;;
81056;SDS011;70563;50.084;14.468;2023-06-26T05:19:39;10.45;;;5.78;;
81056;SDS011;70563;50.084;14.468;2023-06-26T05:22:05;11.68;;;6.22;;
81056;SDS011;70563;50.084;14.468;2023-06-26T05:24:37;8.90;;;6.07;;
81056;SDS011;70563;50.084;14.468;2023-06-26T05:27:04;9.75;;;6.63;;
81056;SDS011;70563;50.084;14.468;2023-06-26T05:29:30;10.10;;;5.88;;
81056;SDS011;70563;50.084;14.468;2023-06-26T05:31:56;7.40;;;5.93;;
81056;SDS011;70563;50.084;14.468;2023-06-26T05:34:25;9.98;;;5.82;;
81056;SDS011;70563;50.084;14.468;2023-06-26T05:36:54;8.68;;;6.03;;
81056;SDS011;70563;50.084;14.468;2023-06-26T05:39:23;10.23;;;5.80;;
81056;SDS011;70563;50.084;14.468;2023-06-26T05:41:49;9.68;;;5.90;;
81056;SDS011;70563;50.084;14.468;2023-06-26T05:44:15;8.98;;;5.90;;
81056;SDS011;70563;50.084;14.468;2023-06-26T05:46:40;13.73;;;5.68;;
81056;SDS011;70563;50.084;14.468;2023-06-26T05:49:06;10.18;;;6.00;;
81056;SDS011;70563;50.084;14.468;2023-06-26T05:51:31;8.82;;;5.80;;
81056;SDS011;70563;50.084;14.468;2023-06-26T05:53:57;11.68;;;6.45;;
81056;SDS011;70563;50.084;14.468;2023-06-26T05:56:22;12.27;;;6.70;;
81056;SDS011;70563;50.084;14.468;2023-06-26T05:58:48;7.32;;;5.70;;
81056;SDS011;70563;50.084;14.468;2023-06-26T06:01:15;8.73;;;5.60;;
81056;SDS011;70563;50.084;14.468;2023-06-26T06:03:41;5.93;;;5.28;;
81056;SDS011;70563;50.084;14.468;2023-06-26T06:06:06;7.13;;;5.13;;
81056;SDS011;70563;50.084;14.468;2023-06-26T06:08:32;5.40;;;4.60;;
81056;SDS011;70563;50.084;14.468;2023-06-26T06:10:57;5.22;;;4.72;;
81056;SDS011;70563;50.084;14.468;2023-06-26T06:13:24;10.05;;;4.45;;
81056;SDS011;70563;50.084;14.468;2023-06-26T06:15:50;6.53;;;5.53;;
81056;SDS011;70563;50.084;14.468;2023-06-26T06:18:15;5.97;;;4.78;;
81056;SDS011;70563;50.084;14.468;2023-06-26T06:20:40;6.72;;;5.05;;
81056;SDS011;70563;50.084;14.468;2023-06-26T06:23:06;6.70;;;4.88;;
81056;SDS011;70563;50.084;14.468;2023-06-26T06:25:31;6.10;;;4.60;;
81056;SDS011;70563;50.084;14.468;2023-06-26T06:27:57;7.00;;;4.32;;
81056;SDS011;70563;50.084;14.468;2023-06-26T06:30:22;5.63;;;4.15;;
81056;SDS011;70563;50.084;14.468;2023-06-26T06:32:48;8.77;;;4.70;;
81056;SDS011;70563;50.084;14.468;2023-06-26T06:35:16;6.28;;;4.72;;
81056;SDS011;70563;50.084;14.468;2023-06-26T06:37:44;9.60;;;4.72;;
81056;SDS011;70563;50.084;14.468;2023-06-26T06:40:10;5.53;;;4.50;;
81056;SDS011;70563;50.084;14.468;2023-06-26T06:42:36;7.28;;;5.00;;
81056;SDS011;70563;50.084;14.468;2023-06-26T06:45:04;7.88;;;4.80;;
81056;SDS011;70563;50.084;14.468;2023-06-26T06:47:33;4.70;;;3.83;;
81056;SDS011;70563;50.084;14.468;2023-06-26T06:49:59;5.05;;;4.28;;
81056;SDS011;70563;50.084;14.468;2023-06-26T06:52:32;6.38;;;3.83;;
81056;SDS011;70563;50.084;14.468;2023-06-26T06:55:00;6.75;;;4.28;;
81056;SDS011;70563;50.084;14.468;2023-06-26T06:57:30;5.25;;;4.13;;
81056;SDS011;70563;50.084;14.468;2023-06-26T06:59:55;5.57;;;3.88;;
81056;SDS011;70563;50.084;14.468;2023-06-26T07:02:21;4.47;;;3.90;;
81056;SDS011;70563;50.084;14.468;2023-06-26T07:04:46;4.35;;;3.65;;
81056;SDS011;70563;50.084;14.468;2023-06-26T07:07:12;5.07;;;4.10;;
81056;SDS011;70563;50.084;14.468;2023-06-26T07:09:38;6.85;;;4.32;;
81056;SDS011;70563;50.084;14.468;2023-06-26T07:12:04;6.63;;;4.30;;
81056;SDS011;70563;50.084;14.468;2023-06-26T07:14:30;5.93;;;4.53;;
81056;SDS011;70563;50.084;14.468;2023-06-26T07:16:55;5.35;;;3.72;;
81056;SDS011;70563;50.084;14.468;2023-06-26T07:19:21;5.82;;;4.13;;
81056;SDS011;70563;50.084;14.468;2023-06-26T07:21:46;4.60;;;3.70;;
81056;SDS011;70563;50.084;14.468;2023-06-26T07:24:12;5.45;;;4.00;;
81056;SDS011;70563;50.084;14.468;2023-06-26T07:26:37;6.47;;;4.10;;
81056;SDS011;70563;50.084;14.468;2023-06-26T07:29:03;5.63;;;4.13;;
81056;SDS011;70563;50.084;14.468;2023-06-26T07:31:28;4.20;;;3.80;;
81056;SDS011;70563;50.084;14.468;2023-06-26T07:33:54;5.38;;;4.00;;
81056;SDS011;70563;50.084;14.468;2023-06-26T07:36:19;4.50;;;3.65;;
81056;SDS011;70563;50.084;14.468;2023-06-26T07:38:45;5.95;;;3.80;;
81056;SDS011;70563;50.084;14.468;2023-06-26T07:41:10;4.43;;;4.03;;
81056;SDS011;70563;50.084;14.468;2023-06-26T07:43:36;4.85;;;4.05;;
81056;SDS011;70563;50.084;14.468;2023-06-26T07:46:01;5.38;;;3.85;;
81056;SDS011;70563;50.084;14.468;2023-06-26T07:48:26;4.47;;;4.05;;
81056;SDS011;70563;50.084;14.468;2023-06-26T07:50:52;3.80;;;3.38;;
81056;SDS011;70563;50.084;14.468;2023-06-26T07:53:18;4.20;;;3.78;;
81056;SDS011;70563;50.084;14.468;2023-06-26T07:55:43;5.18;;;3.53;;
81056;SDS011;70563;50.084;14.468;2023-06-26T07:58:09;8.35;;;4.10;;
81056;SDS011;70563;50.084;14.468;2023-06-26T08:00:34;4.47;;;3.80;;
81056;SDS011;70563;50.084;14.468;2023-06-26T08:03:00;4.82;;;4.32;;
81056;SDS011;70563;50.084;14.468;2023-06-26T08:05:25;6.85;;;4.60;;
81056;SDS011;70563;50.084;14.468;2023-06-26T08:07:51;7.32;;;4.30;;
81056;SDS011;70563;50.084;14.468;2023-06-26T08:10:18;5.90;;;4.22;;
81056;SDS011;70563;50.084;14.468;2023-06-26T08:12:44;5.35;;;4.65;;
81056;SDS011;70563;50.084;14.468;2023-06-26T08:15:10;4.13;;;3.58;;
81056;SDS011;70563;50.084;14.468;2023-06-26T08:17:37;4.63;;;4.05;;
81056;SDS011;70563;50.084;14.468;2023-06-26T08:20:03;4.95;;;3.70;;
81056;SDS011;70563;50.084;14.468;2023-06-26T08:22:30;4.93;;;3.95;;
81056;SDS011;70563;50.084;14.468;2023-06-26T08:24:55;8.32;;;5.63;;
81056;SDS011;70563;50.084;14.468;2023-06-26T08:27:20;4.13;;;3.47;;
81056;SDS011;70563;50.084;14.468;2023-06-26T08:29:46;4.55;;;4.13;;
81056;SDS011;70563;50.084;14.468;2023-06-26T08:32:11;9.98;;;3.90;;
81056;SDS011;70563;50.084;14.468;2023-06-26T08:34:37;4.95;;;3.60;;
81056;SDS011;70563;50.084;14.468;2023-06-26T08:37:02;4.00;;;3.60;;
81056;SDS011;70563;50.084;14.468;2023-06-26T08:39:27;5.65;;;3.63;;
81056;SDS011;70563;50.084;14.468;2023-06-26T08:41:53;5.45;;;3.72;;
81056;SDS011;70563;50.084;14.468;2023-06-26T08:44:18;4.10;;;3.60;;
81056;SDS011;70563;50.084;14.468;2023-06-26T08:46:49;4.75;;;3.92;;
81056;SDS011;70563;50.084;14.468;2023-06-26T08:49:20;4.35;;;3.78;;
81056;SDS011;70563;50.084;14.468;2023-06-26T08:51:52;4.10;;;3.70;;
81056;SDS011;70563;50.084;14.468;2023-06-26T08:54:22;5.10;;;3.83;;
81056;SDS011;70563;50.084;14.468;2023-06-26T08:56:53;5.30;;;3.92;;
81056;SDS011;70563;50.084;14.468;2023-06-26T08:59:20;5.20;;;4.00;;
81056;SDS011;70563;50.084;14.468;2023-06-26T09:01:46;4.97;;;4.20;;
81056;SDS011;70563;50.084;14.468;2023-06-26T09:04:11;4.55;;;4.15;;
81056;SDS011;70563;50.084;14.468;2023-06-26T09:06:37;5.13;;;4.25;;
81056;SDS011;70563;50.084;14.468;2023-06-26T09:09:04;6.32;;;3.70;;
81056;SDS011;70563;50.084;14.468;2023-06-26T09:11:29;4.90;;;3.97;;
81056;SDS011;70563;50.084;14.468;2023-06-26T09:13:55;4.68;;;4.00;;
81056;SDS011;70563;50.084;14.468;2023-06-26T09:16:23;4.28;;;3.88;;
81056;SDS011;70563;50.084;14.468;2023-06-26T09:18:52;6.13;;;4.28;;
81056;SDS011;70563;50.084;14.468;2023-06-26T09:21:18;5.18;;;4.32;;
81056;SDS011;70563;50.084;14.468;2023-06-26T09:23:43;5.43;;;4.50;;
81056;SDS011;70563;50.084;14.468;2023-06-26T09:26:09;6.50;;;4.10;;
81056;SDS011;70563;50.084;14.468;2023-06-26T09:28:36;5.00;;;3.88;;
81056;SDS011;70563;50.084;14.468;2023-06-26T09:31:02;5.30;;;4.50;;
81056;SDS011;70563;50.084;14.468;2023-06-26T09:33:33;6.05;;;4.07;;
81056;SDS011;70563;50.084;14.468;2023-06-26T09:36:01;5.40;;;4.15;;
81056;SDS011;70563;50.084;14.468;2023-06-26T09:38:26;5.35;;;4.18;;
81056;SDS011;70563;50.084;14.468;2023-06-26T09:40:52;8.18;;;4.57;;
81056;SDS011;70563;50.084;14.468;2023-06-26T09:43:18;6.95;;;4.38;;
81056;SDS011;70563;50.084;14.468;2023-06-26T09:45:44;4.43;;;3.70;;
81056;SDS011;70563;50.084;14.468;2023-06-26T09:48:09;4.70;;;3.78;;
81056;SDS011;70563;50.084;14.468;2023-06-26T09:50:36;4.30;;;3.90;;
81056;SDS011;70563;50.084;14.468;2023-06-26T09:53:09;4.93;;;4.20;;
81056;SDS011;70563;50.084;14.468;2023-06-26T09:55:38;4.85;;;4.25;;
81056;SDS011;70563;50.084;14.468;2023-06-26T09:58:05;5.13;;;4.63;;
81056;SDS011;70563;50.084;14.468;2023-06-26T10:00:31;5.07;;;3.80;;
81056;SDS011;70563;50.084;14.468;2023-06-26T10:02:57;4.25;;;3.85;;
81056;SDS011;70563;50.084;14.468;2023-06-26T10:05:23;6.03;;;4.13;;
81056;SDS011;70563;50.084;14.468;2023-06-26T10:07:48;4.90;;;4.40;;
81056;SDS011;70563;50.084;14.468;2023-06-26T10:10:15;5.80;;;4.47;;
81056;SDS011;70563;50.084;14.468;2023-06-26T10:12:42;5.30;;;4.57;;
81056;SDS011;70563;50.084;14.468;2023-06-26T10:15:13;6.78;;;4.45;;
81056;SDS011;70563;50.084;14.468;2023-06-26T10:17:42;5.82;;;4.05;;
81056;SDS011;70563;50.084;14.468;2023-06-26T10:20:08;4.65;;;4.22;;
81056;SDS011;70563;50.084;14.468;2023-06-26T10:22:41;4.82;;;4.35;;
81056;SDS011;70563;50.084;14.468;2023-06-26T10:25:09;5.18;;;4.68;;
81056;SDS011;70563;50.084;14.468;2023-06-26T10:27:38;4.45;;;3.97;;
81056;SDS011;70563;50.084;14.468;2023-06-26T10:30:13;4.40;;;3.75;;
81056;SDS011;70563;50.084;14.468;2023-06-26T10:32:42;4.93;;;4.43;;
81056;SDS011;70563;50.084;14.468;2023-06-26T10:35:08;5.43;;;4.72;;
81056;SDS011;70563;50.084;14.468;2023-06-26T10:40:26;6.38;;;4.50;;
81056;SDS011;70563;50.084;14.468;2023-06-26T10:43:05;4.93;;;4.10;;
81056;SDS011;70563;50.084;14.468;2023-06-26T10:45:33;4.97;;;4.47;;
81056;SDS011;70563;50.084;14.468;2023-06-26T10:48:03;5.82;;;4.70;;
81056;SDS011;70563;50.084;14.468;2023-06-26T10:50:30;4.38;;;3.97;;
81056;SDS011;70563;50.084;14.468;2023-06-26T10:55:49;4.75;;;4.35;;
81056;SDS011;70563;50.084;14.468;2023-06-26T11:03:38;4.93;;;4.40;;
81056;SDS011;70563;50.084;14.468;2023-06-26T11:06:11;7.25;;;4.93;;
81056;SDS011;70563;50.084;14.468;2023-06-26T11:08:44;4.57;;;4.18;;
81056;SDS011;70563;50.084;14.468;2023-06-26T11:11:13;6.88;;;4.90;;
81056;SDS011;70563;50.084;14.468;2023-06-26T11:13:39;6.43;;;5.30;;
81056;SDS011;70563;50.084;14.468;2023-06-26T11:16:05;5.25;;;4.25;;
81056;SDS011;70563;50.084;14.468;2023-06-26T11:18:31;5.70;;;5.20;;
81056;SDS011;70563;50.084;14.468;2023-06-26T11:21:09;6.35;;;4.60;;
81056;SDS011;70563;50.084;14.468;2023-06-26T11:28:38;5.30;;;4.35;;
81056;SDS011;70563;50.084;14.468;2023-06-26T11:31:03;6.60;;;4.90;;
81056;SDS011;70563;50.084;14.468;2023-06-26T11:33:29;5.10;;;4.70;;
81056;SDS011;70563;50.084;14.468;2023-06-26T11:35:54;5.13;;;4.68;;
81056;SDS011;70563;50.084;14.468;2023-06-26T11:38:19;4.50;;;4.10;;
81056;SDS011;70563;50.084;14.468;2023-06-26T11:40:45;5.50;;;4.53;;
81056;SDS011;70563;50.084;14.468;2023-06-26T11:43:10;5.95;;;4.93;;
81056;SDS011;70563;50.084;14.468;2023-06-26T11:45:35;5.57;;;4.40;;
81056;SDS011;70563;50.084;14.468;2023-06-26T11:48:01;4.68;;;4.13;;
81056;SDS011;70563;50.084;14.468;2023-06-26T11:50:27;6.20;;;4.53;;
81056;SDS011;70563;50.084;14.468;2023-06-26T11:52:53;5.70;;;4.57;;
81056;SDS011;70563;50.084;14.468;2023-06-26T11:55:20;4.60;;;4.20;;
81056;SDS011;70563;50.084;14.468;2023-06-26T11:57:49;4.75;;;4.35;;
81056;SDS011;70563;50.084;14.468;2023-06-26T12:00:16;4.18;;;3.60;;
81056;SDS011;70563;50.084;14.468;2023-06-26T12:02:42;4.75;;;4.32;;
81056;SDS011;70563;50.084;14.468;2023-06-26T12:05:09;4.40;;;3.83;;
81056;SDS011;70563;50.084;14.468;2023-06-26T12:07:36;4.60;;;4.20;;
81056;SDS011;70563;50.084;14.468;2023-06-26T12:10:02;4.63;;;4.22;;
81056;SDS011;70563;50.084;14.468;2023-06-26T12:12:29;4.75;;;3.88;;
81056;SDS011;70563;50.084;14.468;2023-06-26T12:14:56;4.70;;;4.30;;
81056;SDS011;70563;50.084;14.468;2023-06-26T12:17:22;5.03;;;4.40;;
81056;SDS011;70563;50.084;14.468;2023-06-26T12:19:50;4.85;;;3.88;;
81056;SDS011;70563;50.084;14.468;2023-06-26T12:22:16;6.30;;;4.32;;
81056;SDS011;70563;50.084;14.468;2023-06-26T12:24:42;6.97;;;4.28;;
81056;SDS011;70563;50.084;14.468;2023-06-26T12:27:18;4.82;;;3.97;;
81056;SDS011;70563;50.084;14.468;2023-06-26T12:29:51;5.18;;;4.68;;
81056;SDS011;70563;50.084;14.468;2023-06-26T12:32:19;4.38;;;4.05;;
81056;SDS011;70563;50.084;14.468;2023-06-26T12:34:48;5.03;;;4.45;;
81056;SDS011;70563;50.084;14.468;2023-06-26T12:37:18;5.03;;;4.18;;
81056;SDS011;70563;50.084;14.468;2023-06-26T12:42:26;5.82;;;4.57;;
81056;SDS011;70563;50.084;14.468;2023-06-26T12:44:53;7.20;;;5.05;;
81056;SDS011;70563;50.084;14.468;2023-06-26T12:47:25;4.95;;;4.45;;
81056;SDS011;70563;50.084;14.468;2023-06-26T12:49:52;5.70;;;4.82;;
81056;SDS011;70563;50.084;14.468;2023-06-26T12:52:18;4.82;;;4.32;;
81056;SDS011;70563;50.084;14.468;2023-06-26T12:54:45;6.13;;;4.38;;
81056;SDS011;70563;50.084;14.468;2023-06-26T12:57:12;5.03;;;4.60;;
81056;SDS011;70563;50.084;14.468;2023-06-26T12:59:39;4.85;;;4.35;;
81056;SDS011;70563;50.084;14.468;2023-06-26T13:02:05;5.53;;;4.18;;
81056;SDS011;70563;50.084;14.468;2023-06-26T13:04:32;5.05;;;4.43;;
81056;SDS011;70563;50.084;14.468;2023-06-26T13:06:58;6.18;;;4.50;;
81056;SDS011;70563;50.084;14.468;2023-06-26T13:09:24;5.78;;;4.05;;
81056;SDS011;70563;50.084;14.468;2023-06-26T13:11:50;5.15;;;4.50;;
81056;SDS011;70563;50.084;14.468;2023-06-26T13:14:19;5.60;;;4.03;;
81056;SDS011;70563;50.084;14.468;2023-06-26T13:16:44;5.90;;;4.45;;
81056;SDS011;70563;50.084;14.468;2023-06-26T13:19:10;4.78;;;4.38;;
81056;SDS011;70563;50.084;14.468;2023-06-26T13:21:35;5.65;;;4.28;;
81056;SDS011;70563;50.084;14.468;2023-06-26T13:24:01;4.78;;;4.28;;
81056;SDS011;70563;50.084;14.468;2023-06-26T13:26:29;5.97;;;4.20;;
81056;SDS011;70563;50.084;14.468;2023-06-26T13:28:55;4.65;;;4.25;;
81056;SDS011;70563;50.084;14.468;2023-06-26T13:31:21;5.07;;;4.53;;
81056;SDS011;70563;50.084;14.468;2023-06-26T13:33:47;4.93;;;4.30;;
81056;SDS011;70563;50.084;14.468;2023-06-26T13:36:17;7.10;;;5.22;;
81056;SDS011;70563;50.084;14.468;2023-06-26T13:38:43;5.35;;;4.75;;
81056;SDS011;70563;50.084;14.468;2023-06-26T13:41:08;5.30;;;4.60;;
81056;SDS011;70563;50.084;14.468;2023-06-26T13:43:34;7.47;;;4.90;;
81056;SDS011;70563;50.084;14.468;2023-06-26T13:45:59;4.75;;;4.35;;
81056;SDS011;70563;50.084;14.468;2023-06-26T13:48:25;5.32;;;4.82;;
81056;SDS011;70563;50.084;14.468;2023-06-26T13:50:50;4.80;;;4.40;;
81056;SDS011;70563;50.084;14.468;2023-06-26T13:53:17;8.00;;;4.80;;
81056;SDS011;70563;50.084;14.468;2023-06-26T13:55:42;5.53;;;4.70;;
81056;SDS011;70563;50.084;14.468;2023-06-26T13:58:08;6.22;;;5.55;;
81056;SDS011;70563;50.084;14.468;2023-06-26T14:00:34;7.93;;;4.57;;
81056;SDS011;70563;50.084;14.468;2023-06-26T14:03:01;5.55;;;5.05;;
81056;SDS011;70563;50.084;14.468;2023-06-26T14:05:29;5.55;;;5.05;;
81056;SDS011;70563;50.084;14.468;2023-06-26T14:07:55;5.88;;;4.88;;
81056;SDS011;70563;50.084;14.468;2023-06-26T14:10:21;6.25;;;4.80;;
81056;SDS011;70563;50.084;14.468;2023-06-26T14:12:47;6.20;;;4.93;;
81056;SDS011;70563;50.084;14.468;2023-06-26T14:15:13;5.38;;;4.88;;
81056;SDS011;70563;50.084;14.468;2023-06-26T14:17:38;5.82;;;5.22;;
81056;SDS011;70563;50.084;14.468;2023-06-26T14:20:05;7.03;;;5.18;;
81056;SDS011;70563;50.084;14.468;2023-06-26T14:22:35;5.25;;;4.75;;
81056;SDS011;70563;50.084;14.468;2023-06-26T14:25:01;6.03;;;5.30;;
81056;SDS011;70563;50.084;14.468;2023-06-26T14:27:27;5.68;;;5.07;;
81056;SDS011;70563;50.084;14.468;2023-06-26T14:29:52;5.88;;;5.32;;
81056;SDS011;70563;50.084;14.468;2023-06-26T14:32:17;6.28;;;4.80;;
81056;SDS011;70563;50.084;14.468;2023-06-26T14:34:42;6.07;;;5.47;;
81056;SDS011;70563;50.084;14.468;2023-06-26T14:37:08;5.43;;;4.93;;
81056;SDS011;70563;50.084;14.468;2023-06-26T14:39:33;5.13;;;4.50;;
81056;SDS011;70563;50.084;14.468;2023-06-26T14:41:59;5.35;;;4.75;;
81056;SDS011;70563;50.084;14.468;2023-06-26T14:44:24;6.63;;;5.05;;
81056;SDS011;70563;50.084;14.468;2023-06-26T14:46:49;7.75;;;5.35;;
81056;SDS011;70563;50.084;14.468;2023-06-26T14:49:15;7.43;;;5.45;;
81056;SDS011;70563;50.084;14.468;2023-06-26T14:51:40;6.90;;;4.78;;
81056;SDS011;70563;50.084;14.468;2023-06-26T14:54:06;5.30;;;4.50;;